Time;durP1;ratioP1;P1;durP2;ratioP2;P2;SDS_P1;SDS_P2;PMS_P1;PMS_P2;Temp;Humidity;BMP_temperature;BMP_pressure;BME280_temperature;BME280_humidity;BME280_pressure;Samples;Min_cycle;Max_cycle;Signal;HPM_P1;HPM_P2
2023/10/20 00:01:46;;;;;;;;;;;;;;;5.96;86.12;98896.89;110824;1212;97587;-70
2023/10/20 00:04:11;;;;;;;;;;;;;;;5.97;86.13;98896.52;110650;1214;124540;-70
2023/10/20 00:06:39;;;;;;;;;;;;;;;5.94;86.03;98899.66;110920;1208;98028;-70
2023/10/20 00:09:05;;;;;;;;;;;;;;;5.92;86.26;98896.38;110740;1214;107050;-69
2023/10/20 00:11:30;;;;;;;;;;;;;;;5.93;86.36;98896.54;110676;1211;125834;-69
2023/10/20 00:13:55;;;;;;;;;;;;;;;5.91;86.56;98898.94;110883;1213;97767;-69
2023/10/20 00:16:24;;;;;;;;;;;;;;;5.90;86.62;98890.28;110598;1208;124428;-69
2023/10/20 00:18:50;;;;;;;;;;;;;;;5.91;86.90;98888.30;110812;1211;108102;-69
2023/10/20 00:21:15;;;;;;;;;;;;;;;5.92;86.75;98898.92;110795;1209;98516;-69
2023/10/20 00:23:40;;;;;;;;;;;;;;;5.90;86.73;98899.52;110841;1212;125219;-69
2023/10/20 00:26:06;;;;;;;;;;;;;;;5.87;86.85;98900.70;110733;1211;97696;-69
2023/10/20 00:28:32;;;;;;;;;;;;;;;5.86;86.96;98905.52;110597;1213;125002;-68
2023/10/20 00:30:57;;;;;;;;;;;;;;;5.87;87.24;98909.37;110925;1214;97577;-70
2023/10/20 00:33:22;;;;;;;;;;;;;;;5.86;87.17;98912.24;110739;1213;97687;-69
2023/10/20 00:35:47;;;;;;;;;;;;;;;5.86;87.46;98913.87;110726;1211;124720;-69
2023/10/20 00:38:12;;;;;;;;;;;;;;;5.86;87.28;98914.56;110840;1213;97656;-69
2023/10/20 00:40:44;;;;;;;;;;;;;;;5.85;87.43;98914.09;110787;1211;124413;-69
2023/10/20 00:43:10;;;;;;;;;;;;;;;5.86;87.66;98913.15;110838;1214;101400;-70
2023/10/20 00:45:35;;;;;;;;;;;;;;;5.85;87.56;98913.40;110858;1213;97591;-70
2023/10/20 00:48:00;;;;;;;;;;;;;;;5.83;87.53;98912.59;110814;1213;124890;-70
2023/10/20 00:50:25;;;;;;;;;;;;;;;5.82;87.67;98912.13;110825;1212;97590;-70
2023/10/20 00:52:52;;;;;;;;;;;;;;;5.79;87.61;98912.98;110772;1209;124859;-70
2023/10/20 00:55:20;;;;;;;;;;;;;;;5.74;87.69;98913.59;110835;1213;97719;-70
2023/10/20 00:57:45;;;;;;;;;;;;;;;5.72;87.89;98916.71;110902;1213;97790;-70
2023/10/20 01:00:11;;;;;;;;;;;;;;;5.72;88.07;98920.60;110745;1208;125390;-70
2023/10/20 01:02:37;;;;;;;;;;;;;;;5.72;88.16;98911.05;110915;1212;97692;-70
2023/10/20 01:05:05;;;;;;;;;;;;;;;5.72;88.35;98905.73;110782;1209;125387;-70
2023/10/20 01:07:30;;;;;;;;;;;;;;;5.73;88.24;98911.19;110855;1213;97607;-71
2023/10/20 01:09:59;;;;;;;;;;;;;;;5.70;88.21;98913.81;110762;1213;124559;-70
2023/10/20 01:12:24;;;;;;;;;;;;;;;5.68;88.38;98913.73;110803;1214;97596;-70
2023/10/20 01:14:50;;;;;;;;;;;;;;;5.67;88.50;98916.44;110846;1213;97845;-70
2023/10/20 01:17:15;;;;;;;;;;;;;;;5.66;88.63;98914.36;110800;1213;125199;-70
2023/10/20 01:19:41;;;;;;;;;;;;;;;5.66;88.78;98916.33;110803;1214;98869;-70
2023/10/20 01:22:06;;;;;;;;;;;;;;;5.64;88.62;98925.64;110810;1214;124824;-69
2023/10/20 01:24:31;;;;;;;;;;;;;;;5.63;88.92;98924.26;110846;1211;98235;-70
2023/10/20 01:26:56;;;;;;;;;;;;;;;5.64;88.77;98923.49;110972;1211;97697;-70
2023/10/20 01:29:21;;;;;;;;;;;;;;;5.62;88.80;98922.22;110738;1212;124506;-70
2023/10/20 01:31:47;;;;;;;;;;;;;;;5.62;88.90;98917.95;110863;1213;97735;-70
2023/10/20 01:34:12;;;;;;;;;;;;;;;5.61;89.06;98918.15;110779;1214;124998;-69
2023/10/20 01:36:37;;;;;;;;;;;;;;;5.62;89.13;98923.78;110834;1212;97707;-70
2023/10/20 01:39:04;;;;;;;;;;;;;;;5.59;89.07;98929.98;110882;1214;97606;-70
2023/10/20 01:41:30;;;;;;;;;;;;;;;5.57;89.20;98926.55;110667;1208;124463;-70
2023/10/20 01:43:55;;;;;;;;;;;;;;;5.55;89.27;98926.25;110876;1214;97338;-70
2023/10/20 01:46:20;;;;;;;;;;;;;;;5.56;89.18;98920.20;110818;1213;124723;-70
2023/10/20 01:48:45;;;;;;;;;;;;;;;5.57;89.42;98912.34;110820;1213;97565;-70
2023/10/20 01:51:11;;;;;;;;;;;;;;;5.58;89.36;98906.81;110847;1214;97714;-70
2023/10/20 01:53:37;;;;;;;;;;;;;;;5.59;89.42;98902.88;110699;1208;124436;-70
2023/10/20 01:56:02;;;;;;;;;;;;;;;5.58;89.44;98899.93;110775;1223;97799;-70
2023/10/20 01:58:28;;;;;;;;;;;;;;;5.57;89.44;98902.09;110746;1208;124431;-70
2023/10/20 02:00:53;;;;;;;;;;;;;;;5.56;89.57;98902.30;110901;1214;97748;-69
2023/10/20 02:03:19;;;;;;;;;;;;;;;5.53;89.56;98897.81;110878;1214;98272;-70
2023/10/20 02:05:45;;;;;;;;;;;;;;;5.53;89.49;98889.33;110807;1213;124269;-70
2023/10/20 02:08:10;;;;;;;;;;;;;;;5.51;89.58;98880.03;110898;1211;97613;-70
2023/10/20 02:10:36;;;;;;;;;;;;;;;5.50;89.72;98881.48;110809;1214;125004;-70
2023/10/20 02:13:02;;;;;;;;;;;;;;;5.49;89.85;98878.75;110768;1208;97689;-70
2023/10/20 02:15:28;;;;;;;;;;;;;;;5.43;89.96;98880.81;110759;1211;97588;-70
2023/10/20 02:17:53;;;;;;;;;;;;;;;5.43;89.96;98883.48;110758;1213;124291;-70
2023/10/20 02:20:22;;;;;;;;;;;;;;;5.43;90.06;98882.78;110770;1214;100902;-70
2023/10/20 02:22:50;;;;;;;;;;;;;;;5.44;90.10;98884.67;110776;1209;124398;-71
2023/10/20 02:25:16;;;;;;;;;;;;;;;5.46;90.32;98883.33;110861;1228;107851;-70
2023/10/20 02:27:42;;;;;;;;;;;;;;;5.45;90.42;98878.24;110890;1209;99188;-70
2023/10/20 02:30:09;;;;;;;;;;;;;;;5.42;90.62;98878.39;110775;1213;124864;-70
2023/10/20 02:32:34;;;;;;;;;;;;;;;5.45;90.63;98875.78;110860;1213;100053;-70
2023/10/20 02:35:00;;;;;;;;;;;;;;;5.44;90.62;98876.50;110750;1214;124958;-70
2023/10/20 02:37:26;;;;;;;;;;;;;;;5.44;90.84;98877.58;110883;1214;97681;-70
2023/10/20 02:39:51;;;;;;;;;;;;;;;5.46;90.75;98870.73;110818;1209;97699;-70
2023/10/20 02:42:16;;;;;;;;;;;;;;;5.47;90.76;98856.50;110816;1214;124083;-70
2023/10/20 02:44:41;;;;;;;;;;;;;;;5.47;90.73;98854.38;110885;1212;97699;-71
2023/10/20 02:47:06;;;;;;;;;;;;;;;5.45;91.05;98855.89;110764;1209;124382;-70
2023/10/20 02:49:31;;;;;;;;;;;;;;;5.46;91.14;98853.04;110780;1214;97696;-70
2023/10/20 02:51:57;;;;;;;;;;;;;;;5.43;91.12;98858.81;110669;1209;124584;-69
2023/10/20 02:54:22;;;;;;;;;;;;;;;5.40;91.22;98861.30;110815;1212;99135;-70
2023/10/20 02:56:47;;;;;;;;;;;;;;;5.39;91.28;98857.25;110765;1214;97676;-70
2023/10/20 02:59:12;;;;;;;;;;;;;;;5.39;91.41;98862.05;110711;1220;124464;-70
2023/10/20 03:01:38;;;;;;;;;;;;;;;5.39;91.26;98862.08;110736;1214;97661;-70
2023/10/20 03:04:03;;;;;;;;;;;;;;;5.37;91.27;98855.09;110729;1209;125050;-69
2023/10/20 03:06:28;;;;;;;;;;;;;;;5.36;91.60;98853.53;110793;1216;97780;-69
2023/10/20 03:08:54;;;;;;;;;;;;;;;5.37;91.59;98856.69;110813;1216;97559;-69
2023/10/20 03:11:19;;;;;;;;;;;;;;;5.39;91.77;98859.42;110787;1212;124294;-69
2023/10/20 03:13:44;;;;;;;;;;;;;;;5.39;91.57;98858.33;110894;1230;97639;-69
2023/10/20 03:16:09;;;;;;;;;;;;;;;5.41;91.80;98844.09;110719;1214;124488;-69
2023/10/20 03:18:34;;;;;;;;;;;;;;;5.39;91.76;98838.89;110884;1224;96459;-69
2023/10/20 03:21:01;;;;;;;;;;;;;;;5.37;91.77;98844.48;110737;1221;99024;-69
2023/10/20 03:23:27;;;;;;;;;;;;;;;5.35;91.91;98840.48;110844;1215;125991;-71
2023/10/20 03:25:52;;;;;;;;;;;;;;;5.36;91.96;98843.45;110816;1215;107913;-71
2023/10/20 03:28:17;;;;;;;;;;;;;;;5.37;91.94;98849.80;110728;1213;126764;-69
2023/10/20 03:30:43;;;;;;;;;;;;;;;5.36;91.98;98850.00;110927;1214;97698;-70
2023/10/20 03:33:10;;;;;;;;;;;;;;;5.34;91.98;98846.41;110785;1211;97690;-70
2023/10/20 03:35:36;;;;;;;;;;;;;;;5.31;92.13;98846.18;110702;1215;125287;-72
2023/10/20 03:38:03;;;;;;;;;;;;;;;5.32;92.13;98847.17;110914;1221;97695;-72
2023/10/20 03:40:36;;;;;;;;;;;;;;;5.33;92.24;98847.50;110665;1212;125158;-71
2023/10/20 03:43:02;;;;;;;;;;;;;;;5.33;92.21;98851.38;110874;1214;101166;-71
2023/10/20 03:45:27;;;;;;;;;;;;;;;5.34;92.36;98848.14;110751;1230;97451;-69
2023/10/20 03:47:53;;;;;;;;;;;;;;;5.33;92.33;98842.34;110889;1214;124429;-70
2023/10/20 03:50:18;;;;;;;;;;;;;;;5.32;92.32;98840.48;110864;1214;97527;-72
2023/10/20 03:52:46;;;;;;;;;;;;;;;5.31;92.38;98837.69;110732;1213;124569;-68
2023/10/20 03:55:15;;;;;;;;;;;;;;;5.32;92.53;98835.36;110741;1214;97597;-71
2023/10/20 03:57:44;;;;;;;;;;;;;;;5.33;92.54;98833.71;110935;1221;97703;-71
2023/10/20 04:00:29;;;;;;;;;;;;;;;5.32;92.43;98832.31;110640;1214;124129;-69
2023/10/20 04:02:55;;;;;;;;;;;;;;;5.33;92.51;98835.81;110772;1214;114135;-69
2023/10/20 04:05:20;;;;;;;;;;;;;;;5.33;92.52;98831.73;110703;1213;124488;-70
2023/10/20 04:07:45;;;;;;;;;;;;;;;5.31;92.49;98827.25;110893;1215;97683;-69
2023/10/20 04:10:11;;;;;;;;;;;;;;;5.29;92.71;98825.20;110724;1210;125141;-71
2023/10/20 04:12:36;;;;;;;;;;;;;;;5.31;92.55;98820.86;110907;1216;97796;-71
2023/10/20 04:15:02;;;;;;;;;;;;;;;5.30;92.58;98820.94;110882;1209;108251;-70
2023/10/20 04:17:28;;;;;;;;;;;;;;;5.28;92.72;98821.03;110662;1214;124474;-71
2023/10/20 04:19:54;;;;;;;;;;;;;;;5.29;92.99;98820.44;110876;1209;97521;-70
2023/10/20 04:22:19;;;;;;;;;;;;;;;5.29;92.66;98821.69;110686;1212;124422;-69
2023/10/20 04:24:44;;;;;;;;;;;;;;;5.29;92.78;98820.80;110849;1215;97629;-68
2023/10/20 04:27:21;;;;;;;;;;;;;;;5.28;92.93;98815.86;110922;1215;97658;-68
2023/10/20 04:41:51;;;;;;;;;;;;;;;5.26;92.96;98818.84;110776;1215;124994;-69
2023/10/20 04:43:37;;;;;;;;;;;;;;;5.30;93.18;98821.45;110827;1209;111613;-69
2023/10/20 04:54:10;;;;;;;;;;;;;;;5.27;93.07;98823.36;110632;1213;124815;-69
2023/10/20 04:59:23;;;;;;;;;;;;;;;5.25;93.25;98825.97;110642;1209;124795;-69
2023/10/20 05:01:49;;;;;;;;;;;;;;;5.24;93.40;98819.98;110611;1215;108963;-69
2023/10/20 05:04:23;;;;;;;;;;;;;;;5.28;93.24;98816.45;110658;1213;124787;-69
2023/10/20 05:06:58;;;;;;;;;;;;;;;5.27;93.28;98813.09;110745;1209;97583;-70
2023/10/20 05:09:25;;;;;;;;;;;;;;;5.25;93.35;98815.31;110789;1215;111785;-70
2023/10/20 05:11:51;;;;;;;;;;;;;;;5.23;93.30;98818.61;110658;1214;124888;-68
2023/10/20 05:14:17;;;;;;;;;;;;;;;5.22;93.42;98816.52;110714;1209;98192;-71
2023/10/20 05:16:42;;;;;;;;;;;;;;;5.20;93.35;98813.98;110748;1215;124813;-70
2023/10/20 05:19:07;;;;;;;;;;;;;;;5.19;93.47;98811.03;110822;1209;97578;-70
2023/10/20 05:21:38;;;;;;;;;;;;;;;5.19;93.47;98803.63;110812;1214;97719;-70
2023/10/20 05:24:03;;;;;;;;;;;;;;;5.19;93.57;98803.60;110763;1214;124308;-70
2023/10/20 05:26:29;;;;;;;;;;;;;;;5.21;93.46;98791.29;110697;1209;97669;-70
2023/10/20 05:28:55;;;;;;;;;;;;;;;5.21;93.66;98785.06;110739;1212;124827;-70
2023/10/20 05:31:22;;;;;;;;;;;;;;;5.19;93.46;98785.70;110665;1215;99275;-70
2023/10/20 05:33:48;;;;;;;;;;;;;;;5.19;93.45;98783.09;110693;1209;97663;-70
2023/10/20 05:36:13;;;;;;;;;;;;;;;5.17;93.58;98778.75;110793;1212;126479;-70
2023/10/20 05:38:38;;;;;;;;;;;;;;;5.16;93.64;98776.50;110845;1215;110742;-70
2023/10/20 05:41:03;;;;;;;;;;;;;;;5.17;93.67;98785.64;110729;1213;125522;-70
2023/10/20 05:43:30;;;;;;;;;;;;;;;5.18;93.62;98787.90;110789;1214;98475;-70
2023/10/20 05:45:55;;;;;;;;;;;;;;;5.17;93.72;98792.56;110763;1209;124808;-69
2023/10/20 05:48:20;;;;;;;;;;;;;;;5.17;93.68;98793.10;110853;1215;97799;-69
2023/10/20 05:50:46;;;;;;;;;;;;;;;5.16;93.75;98786.77;110932;1209;98971;-70
2023/10/20 05:53:11;;;;;;;;;;;;;;;5.15;93.72;98785.58;110771;1212;124760;-70
2023/10/20 05:55:36;;;;;;;;;;;;;;;5.15;93.88;98788.91;110948;1212;97670;-70
2023/10/20 05:58:02;;;;;;;;;;;;;;;5.16;94.06;98796.86;110776;1215;125178;-69
2023/10/20 06:00:27;;;;;;;;;;;;;;;5.17;93.93;98800.52;110831;1209;97705;-70
2023/10/20 06:02:53;;;;;;;;;;;;;;;5.17;93.97;98794.67;110948;1209;97644;-69
2023/10/20 06:05:18;;;;;;;;;;;;;;;5.20;93.97;98798.06;110718;1210;124600;-69
2023/10/20 06:07:44;;;;;;;;;;;;;;;5.21;93.90;98801.17;110843;1209;97718;-70
2023/10/20 06:10:11;;;;;;;;;;;;;;;5.20;94.13;98808.66;110744;1209;126260;-70
2023/10/20 06:12:37;;;;;;;;;;;;;;;5.21;93.94;98807.73;110855;1225;99155;-70
2023/10/20 06:15:02;;;;;;;;;;;;;;;5.22;94.11;98800.25;110878;1212;97797;-70
2023/10/20 06:17:28;;;;;;;;;;;;;;;5.22;94.12;98798.81;110838;1213;124180;-70
2023/10/20 06:19:53;;;;;;;;;;;;;;;5.20;94.11;98794.13;110837;1215;97680;-71
2023/10/20 06:22:18;;;;;;;;;;;;;;;5.21;94.26;98779.02;110828;1221;125789;-70
2023/10/20 06:24:44;;;;;;;;;;;;;;;5.26;94.26;98763.42;110862;1221;100041;-70
2023/10/20 06:27:09;;;;;;;;;;;;;;;5.28;94.39;98758.88;110832;1209;97652;-70
2023/10/20 06:34:43;;;;;;;;;;;;;;;5.29;94.27;98755.64;110684;1210;124224;-70
2023/10/20 06:37:08;;;;;;;;;;;;;;;5.29;94.22;98762.73;110853;1216;99077;-70
2023/10/20 06:39:37;;;;;;;;;;;;;;;5.29;94.40;98756.51;110834;1215;97700;-70
2023/10/20 06:42:03;;;;;;;;;;;;;;;5.30;94.22;98748.31;110617;1215;124858;-70
2023/10/20 06:44:29;;;;;;;;;;;;;;;5.27;94.40;98748.98;110754;1210;97590;-70
2023/10/20 06:46:56;;;;;;;;;;;;;;;5.25;94.23;98753.17;110614;1213;124871;-70
2023/10/20 06:49:21;;;;;;;;;;;;;;;5.25;94.33;98754.94;110759;1215;98291;-70
2023/10/20 06:51:47;;;;;;;;;;;;;;;5.28;94.50;98759.06;110788;1210;97643;-69
2023/10/20 06:54:13;;;;;;;;;;;;;;;5.31;94.39;98757.64;110780;1209;124847;-70
2023/10/20 06:56:38;;;;;;;;;;;;;;;5.33;94.47;98743.34;110755;1225;97762;-70
2023/10/20 06:59:04;;;;;;;;;;;;;;;5.36;94.58;98750.30;110700;1212;125362;-70
2023/10/20 07:01:32;;;;;;;;;;;;;;;5.37;94.61;98754.83;110762;1209;97582;-69
2023/10/20 07:03:57;;;;;;;;;;;;;;;5.36;94.46;98754.70;110524;1213;124858;-68
2023/10/20 07:06:22;;;;;;;;;;;;;;;5.36;94.51;98758.08;110669;1215;97702;-69
2023/10/20 07:08:50;;;;;;;;;;;;;;;5.39;94.58;98762.02;110769;1213;97577;-69
2023/10/20 07:11:15;;;;;;;;;;;;;;;5.39;94.58;98763.23;110640;1209;124763;-69
2023/10/20 07:13:41;;;;;;;;;;;;;;;5.40;94.64;98766.39;110696;1221;98124;-69
2023/10/20 07:16:06;;;;;;;;;;;;;;;5.41;94.65;98760.14;110670;1212;125964;-68
2023/10/20 07:18:31;;;;;;;;;;;;;;;5.40;94.64;98746.52;110691;1221;97505;-68
2023/10/20 07:20:57;;;;;;;;;;;;;;;5.41;94.61;98736.88;110597;1209;98871;-68
2023/10/20 07:23:22;;;;;;;;;;;;;;;5.44;94.70;98734.45;110600;1215;125159;-71
2023/10/20 07:25:47;;;;;;;;;;;;;;;5.46;94.74;98738.42;110732;1213;97660;-69
2023/10/20 07:28:12;;;;;;;;;;;;;;;5.46;94.60;98735.06;110699;1215;125168;-68
2023/10/20 07:30:37;;;;;;;;;;;;;;;5.46;94.68;98741.27;110666;1213;97670;-69
2023/10/20 07:33:03;;;;;;;;;;;;;;;5.44;94.67;98744.74;110374;1215;97605;-68
2023/10/20 07:35:28;;;;;;;;;;;;;;;5.43;94.77;98744.24;110222;1209;124466;-69
2023/10/20 07:37:54;;;;;;;;;;;;;;;5.44;94.82;98735.16;110702;1213;97717;-68
2023/10/20 07:40:19;;;;;;;;;;;;;;;5.44;94.72;98731.09;110515;1213;126188;-68
2023/10/20 07:42:45;;;;;;;;;;;;;;;5.44;94.86;98727.38;110442;1212;97785;-68
2023/10/20 07:45:12;;;;;;;;;;;;;;;5.44;94.84;98724.70;110531;1209;97826;-68
2023/10/20 07:47:37;;;;;;;;;;;;;;;5.44;94.90;98727.39;110432;1213;125940;-68
2023/10/20 07:50:03;;;;;;;;;;;;;;;5.42;94.79;98720.95;110664;1210;97443;-67
2023/10/20 07:52:28;;;;;;;;;;;;;;;5.43;94.96;98718.73;110579;1213;124589;-69
2023/10/20 07:54:53;;;;;;;;;;;;;;;5.44;95.04;98717.80;110556;1209;97573;-72
2023/10/20 07:57:20;;;;;;;;;;;;;;;5.46;95.12;98716.80;110739;1213;97801;-69
2023/10/20 07:59:46;;;;;;;;;;;;;;;5.48;95.05;98720.59;110513;1209;124848;-68
2023/10/20 08:02:11;;;;;;;;;;;;;;;5.48;95.03;98715.63;110574;1215;97695;-70
2023/10/20 08:04:36;;;;;;;;;;;;;;;5.48;95.17;98710.31;110613;1209;125534;-68
2023/10/20 08:07:02;;;;;;;;;;;;;;;5.50;95.01;98711.48;110657;1215;97834;-69
2023/10/20 08:09:27;;;;;;;;;;;;;;;5.48;95.02;98712.61;110585;1210;97585;-67
2023/10/20 08:11:53;;;;;;;;;;;;;;;5.49;95.10;98707.80;110592;1214;125012;-68
2023/10/20 08:14:20;;;;;;;;;;;;;;;5.50;95.20;98703.50;110574;1212;99190;-67
2023/10/20 08:16:45;;;;;;;;;;;;;;;5.52;95.17;98700.02;110454;1216;126679;-66
2023/10/20 08:19:10;;;;;;;;;;;;;;;5.56;95.37;98706.02;110636;1213;97710;-66
2023/10/20 08:21:35;;;;;;;;;;;;;;;5.58;95.39;98701.81;110594;1210;97604;-68
2023/10/20 08:24:02;;;;;;;;;;;;;;;5.60;95.22;98705.80;110413;1225;124911;-68
2023/10/20 08:26:27;;;;;;;;;;;;;;;5.59;95.08;98701.42;110630;1209;97956;-66
2023/10/20 08:28:53;;;;;;;;;;;;;;;5.55;95.01;98696.46;110395;1209;124409;-69
2023/10/20 08:31:19;;;;;;;;;;;;;;;5.53;95.14;98690.41;110643;1210;97624;-69
2023/10/20 08:33:44;;;;;;;;;;;;;;;5.52;95.19;98694.52;110663;1214;97646;-69
2023/10/20 08:36:11;;;;;;;;;;;;;;;5.54;95.26;98695.45;110662;1210;124629;-69
2023/10/20 08:38:37;;;;;;;;;;;;;;;5.56;95.41;98697.87;110950;1215;97718;-69
2023/10/20 08:41:07;;;;;;;;;;;;;;;5.56;95.18;98701.59;110731;1215;124438;-69
2023/10/20 08:43:33;;;;;;;;;;;;;;;5.53;95.30;98708.27;110787;1209;97724;-70
2023/10/20 08:45:59;;;;;;;;;;;;;;;5.52;95.20;98707.63;110705;1213;125017;-72
2023/10/20 08:48:24;;;;;;;;;;;;;;;5.51;95.25;98705.03;110843;1212;97595;-71
2023/10/20 08:50:50;;;;;;;;;;;;;;;5.49;95.13;98695.73;110761;1209;97612;-71
2023/10/20 08:53:15;;;;;;;;;;;;;;;5.50;95.29;98690.20;110589;1212;125250;-68
2023/10/20 08:55:41;;;;;;;;;;;;;;;5.50;95.20;98684.86;110857;1212;97616;-69
2023/10/20 08:58:06;;;;;;;;;;;;;;;5.48;95.16;98677.36;110734;1209;124578;-68
2023/10/20 09:00:31;;;;;;;;;;;;;;;5.47;95.17;98676.92;110832;1212;98219;-69
2023/10/20 09:02:59;;;;;;;;;;;;;;;5.49;95.35;98674.86;110779;1211;96420;-68
2023/10/20 09:05:26;;;;;;;;;;;;;;;5.52;95.50;98676.30;110619;1209;124854;-69
2023/10/20 09:07:52;;;;;;;;;;;;;;;5.53;95.29;98668.79;110835;1212;97678;-69
2023/10/20 09:10:17;;;;;;;;;;;;;;;5.52;95.33;98667.42;110637;1210;126193;-69
2023/10/20 09:12:43;;;;;;;;;;;;;;;5.52;95.27;98668.46;110874;1220;96911;-69
2023/10/20 09:15:09;;;;;;;;;;;;;;;5.53;95.24;98669.64;110751;1213;97679;-69
2023/10/20 09:17:35;;;;;;;;;;;;;;;5.49;95.28;98659.27;110672;1209;124703;-69
2023/10/20 09:20:11;;;;;;;;;;;;;;;5.46;95.29;98655.15;110835;1221;97592;-69
2023/10/20 09:22:37;;;;;;;;;;;;;;;5.49;95.60;98646.48;110715;1209;124438;-68
2023/10/20 09:25:04;;;;;;;;;;;;;;;5.51;95.57;98642.30;110844;1212;97686;-69
2023/10/20 09:27:29;;;;;;;;;;;;;;;5.52;95.57;98633.36;110761;1209;97669;-69
2023/10/20 09:29:56;;;;;;;;;;;;;;;5.56;95.48;98625.59;110719;1210;124908;-69
2023/10/20 09:32:21;;;;;;;;;;;;;;;5.53;95.60;98626.45;110809;1221;99200;-69
2023/10/20 09:34:46;;;;;;;;;;;;;;;5.51;95.49;98626.17;110643;1212;124288;-69
2023/10/20 09:37:12;;;;;;;;;;;;;;;5.53;95.49;98626.64;110810;1211;97607;-70
2023/10/20 09:39:38;;;;;;;;;;;;;;;5.54;95.59;98627.29;110791;1213;97715;-69
2023/10/20 09:42:05;;;;;;;;;;;;;;;5.55;95.52;98630.20;110702;1209;124473;-69
2023/10/20 09:44:53;;;;;;;;;;;;;;;5.59;95.62;98635.36;110762;1212;97724;-70
2023/10/20 09:47:21;;;;;;;;;;;;;;;5.60;95.58;98642.34;110619;1209;125381;-70
2023/10/20 09:49:47;;;;;;;;;;;;;;;5.57;95.44;98643.61;110797;1213;108179;-70
2023/10/20 09:52:12;;;;;;;;;;;;;;;5.57;95.42;98643.80;110673;1209;125355;-70
2023/10/20 09:54:37;;;;;;;;;;;;;;;5.57;95.47;98642.72;110912;1212;97735;-70
2023/10/20 09:57:05;;;;;;;;;;;;;;;5.57;95.51;98642.73;110819;1212;97658;-70
2023/10/20 09:59:31;;;;;;;;;;;;;;;5.57;95.57;98640.05;110625;1210;124394;-70
2023/10/20 10:01:57;;;;;;;;;;;;;;;5.56;95.51;98634.08;110802;1209;97705;-70
2023/10/20 10:04:27;;;;;;;;;;;;;;;5.54;95.72;98622.13;110737;1213;125064;-70
2023/10/20 10:06:52;;;;;;;;;;;;;;;5.51;95.54;98615.54;110833;1213;100038;-70
2023/10/20 10:09:18;;;;;;;;;;;;;;;5.50;95.66;98614.16;110781;1210;97604;-70
2023/10/20 10:11:44;;;;;;;;;;;;;;;5.52;95.82;98612.11;110743;1212;125417;-70
2023/10/20 10:14:18;;;;;;;;;;;;;;;5.49;95.67;98623.30;110802;1213;111541;-71
2023/10/20 10:16:51;;;;;;;;;;;;;;;5.47;95.56;98625.72;110718;1214;124372;-70
2023/10/20 10:19:17;;;;;;;;;;;;;;;5.50;95.84;98625.92;110725;1209;108012;-70
2023/10/20 10:21:42;;;;;;;;;;;;;;;5.49;95.71;98619.73;110782;1213;97740;-71
2023/10/20 10:24:14;;;;;;;;;;;;;;;5.49;95.68;98619.73;110784;1212;124488;-71
2023/10/20 10:26:50;;;;;;;;;;;;;;;5.47;95.84;98612.77;110837;1209;100089;-71
2023/10/20 10:29:15;;;;;;;;;;;;;;;5.47;95.89;98603.90;110620;1212;125481;-72
2023/10/20 10:31:41;;;;;;;;;;;;;;;5.47;96.01;98603.73;110779;1209;97622;-70
2023/10/20 10:34:06;;;;;;;;;;;;;;;5.50;96.03;98598.10;110622;1215;124654;-70
2023/10/20 10:36:44;;;;;;;;;;;;;;;5.50;95.82;98599.15;110430;1212;97595;-69
2023/10/20 10:39:29;;;;;;;;;;;;;;;5.50;96.05;98589.59;110544;1212;106779;-69
2023/10/20 10:42:00;;;;;;;;;;;;;;;5.46;96.02;98583.94;110511;1212;124366;-69
2023/10/20 10:44:26;;;;;;;;;;;;;;;5.49;96.16;98575.15;110697;1212;97609;-69
2023/10/20 10:46:51;;;;;;;;;;;;;;;5.51;96.22;98576.39;110601;1212;124474;-68
2023/10/20 10:49:16;;;;;;;;;;;;;;;5.52;96.23;98579.37;110846;1209;96877;-69
2023/10/20 10:51:45;;;;;;;;;;;;;;;5.51;96.16;98577.14;110736;1212;97593;-68
2023/10/20 10:54:11;;;;;;;;;;;;;;;5.50;96.13;98571.17;110800;1212;124521;-70
2023/10/20 10:56:36;;;;;;;;;;;;;;;5.50;96.15;98566.75;110761;1208;97783;-69
2023/10/20 10:59:03;;;;;;;;;;;;;;;5.51;96.32;98570.59;110728;1212;124333;-69
2023/10/20 11:01:29;;;;;;;;;;;;;;;5.54;96.17;98568.30;110704;1214;97658;-69
2023/10/20 11:03:54;;;;;;;;;;;;;;;5.54;96.28;98560.33;110679;1212;124911;-68
2023/10/20 11:06:19;;;;;;;;;;;;;;;5.53;96.31;98561.77;110652;1209;97597;-69
2023/10/20 11:08:46;;;;;;;;;;;;;;;5.52;96.28;98571.92;110752;1213;97600;-68
2023/10/20 11:11:11;;;;;;;;;;;;;;;5.49;96.32;98569.25;110565;1208;125495;-68
2023/10/20 11:13:39;;;;;;;;;;;;;;;5.51;96.38;98573.75;110688;1213;97565;-69
2023/10/20 11:16:04;;;;;;;;;;;;;;;5.54;96.62;98577.33;110559;1208;125009;-69
2023/10/20 11:18:30;;;;;;;;;;;;;;;5.54;96.43;98569.70;110672;1215;99535;-68
2023/10/20 11:20:56;;;;;;;;;;;;;;;5.53;96.71;98575.39;110656;1208;97697;-69
2023/10/20 11:23:31;;;;;;;;;;;;;;;5.53;96.59;98584.48;110649;1215;124995;-68
2023/10/20 11:26:02;;;;;;;;;;;;;;;5.53;96.60;98592.24;110692;1210;99797;-70
2023/10/20 11:28:29;;;;;;;;;;;;;;;5.52;96.65;98594.92;110625;1209;125187;-68
2023/10/20 11:30:54;;;;;;;;;;;;;;;5.55;96.62;98594.95;110719;1208;97643;-69
2023/10/20 11:33:20;;;;;;;;;;;;;;;5.55;96.57;98592.33;110800;1213;99133;-69
2023/10/20 11:35:45;;;;;;;;;;;;;;;5.54;96.64;98595.75;110611;1208;127847;-69
2023/10/20 11:38:12;;;;;;;;;;;;;;;5.54;96.81;98595.38;110709;1212;97599;-69
2023/10/20 11:40:37;;;;;;;;;;;;;;;5.56;96.63;98594.94;110612;1209;124570;-70
2023/10/20 11:43:04;;;;;;;;;;;;;;;5.58;96.62;98595.16;110865;1209;97963;-70
2023/10/20 11:45:29;;;;;;;;;;;;;;;5.60;96.57;98594.88;110682;1213;99461;-70
2023/10/20 11:47:55;;;;;;;;;;;;;;;5.58;96.57;98598.52;110583;1212;124800;-70
2023/10/20 11:50:20;;;;;;;;;;;;;;;5.60;96.71;98604.08;110825;1209;97543;-69
2023/10/20 11:52:45;;;;;;;;;;;;;;;5.62;96.69;98596.75;110672;1209;124813;-68
2023/10/20 11:55:11;;;;;;;;;;;;;;;5.57;96.55;98578.37;110773;1212;97577;-69
2023/10/20 11:57:40;;;;;;;;;;;;;;;5.53;96.37;98563.16;110805;1209;97600;-68
2023/10/20 12:00:13;;;;;;;;;;;;;;;5.53;96.57;98559.26;110768;1209;125301;-68
2023/10/20 12:02:39;;;;;;;;;;;;;;;5.53;96.48;98550.96;110739;1208;111759;-68
2023/10/20 12:05:07;;;;;;;;;;;;;;;5.51;96.53;98545.08;110605;1212;125046;-69
2023/10/20 12:07:33;;;;;;;;;;;;;;;5.50;96.55;98544.23;110660;1209;97596;-68
2023/10/20 12:09:58;;;;;;;;;;;;;;;5.47;96.58;98545.31;110565;1212;125921;-66
2023/10/20 12:12:24;;;;;;;;;;;;;;;5.47;96.61;98547.24;110772;1213;97702;-68
2023/10/20 12:14:49;;;;;;;;;;;;;;;5.48;96.71;98546.30;110744;1209;97642;-68
2023/10/20 12:17:15;;;;;;;;;;;;;;;5.47;96.57;98550.07;110545;1221;124449;-68
2023/10/20 12:19:40;;;;;;;;;;;;;;;5.49;96.87;98545.53;110693;1212;97711;-68
2023/10/20 12:22:05;;;;;;;;;;;;;;;5.51;96.74;98548.98;110500;1209;125483;-67
2023/10/20 12:24:30;;;;;;;;;;;;;;;5.50;96.71;98547.57;110614;1212;97611;-67
2023/10/20 12:26:56;;;;;;;;;;;;;;;5.50;96.57;98541.24;110557;1212;97681;-67
2023/10/20 12:29:22;;;;;;;;;;;;;;;5.49;96.56;98538.11;110456;1212;124191;-67
2023/10/20 12:31:48;;;;;;;;;;;;;;;5.50;96.68;98532.02;110660;1212;99872;-68
2023/10/20 12:34:13;;;;;;;;;;;;;;;5.49;96.77;98524.30;110506;1212;124734;-70
2023/10/20 12:36:41;;;;;;;;;;;;;;;5.45;96.57;98517.75;110693;1209;97575;-67
2023/10/20 12:39:06;;;;;;;;;;;;;;;5.44;96.60;98509.00;110616;1212;114110;-68
2023/10/20 12:41:32;;;;;;;;;;;;;;;5.42;96.62;98508.71;110457;1209;124541;-69
2023/10/20 12:43:57;;;;;;;;;;;;;;;5.39;96.60;98504.82;110626;1212;97672;-70
2023/10/20 12:46:22;;;;;;;;;;;;;;;5.38;96.71;98499.75;110450;1208;125273;-69
2023/10/20 12:48:48;;;;;;;;;;;;;;;5.37;96.72;98486.73;110666;1209;99126;-69
2023/10/20 12:51:13;;;;;;;;;;;;;;;5.34;96.46;98467.38;110535;1212;98305;-68
2023/10/20 12:53:39;;;;;;;;;;;;;;;5.32;96.80;98457.41;110483;1210;125105;-68
2023/10/20 12:56:05;;;;;;;;;;;;;;;5.31;96.65;98460.30;110695;1212;97684;-68
2023/10/20 12:58:31;;;;;;;;;;;;;;;5.28;96.55;98464.37;110817;1212;124498;-68
2023/10/20 13:00:57;;;;;;;;;;;;;;;5.26;96.75;98467.85;110492;1212;97665;-69
2023/10/20 13:03:22;;;;;;;;;;;;;;;5.28;96.65;98480.70;110563;1212;96632;-68
2023/10/20 13:05:48;;;;;;;;;;;;;;;5.29;96.76;98490.02;110427;1213;124841;-67